Time;durP1;ratioP1;P1;durP2;ratioP2;P2;SDS_P1;SDS_P2;PMS_P1;PMS_P2;Temp;Humidity;BMP_temperature;BMP_pressure;BME280_temperature;BME280_humidity;BME280_pressure;Samples;Min_cycle;Max_cycle;Signal;HPM_P1;HPM_P2
2023/06/11 00:00:20;;;;;;;6.80;2.47;;;16.10;99.90;;;;;;5014109;28;20464;-55
2023/06/11 00:02:46;;;;;;;5.40;2.43;;;16.10;99.90;;;;;;5013820;28;20542;-55
2023/06/11 00:05:12;;;;;;;5.23;2.30;;;16.00;99.90;;;;;;5013865;28;20413;-57
2023/06/11 00:07:38;;;;;;;4.60;2.13;;;16.00;99.90;;;;;;5014212;28;20220;-55
2023/06/11 00:10:05;;;;;;;9.20;3.23;;;15.90;99.90;;;;;;5013683;28;20189;-56
2023/06/11 00:12:32;;;;;;;9.07;3.03;;;15.80;99.90;;;;;;5013518;28;20809;-55
2023/06/11 00:15:04;;;;;;;6.07;2.70;;;15.90;99.90;;;;;;5013812;28;20411;-57
2023/06/11 00:17:32;;;;;;;3.83;2.30;;;15.80;99.90;;;;;;5013640;28;20738;-57
2023/06/11 00:19:58;;;;;;;4.33;1.90;;;15.80;99.90;;;;;;5013137;28;20477;-55
2023/06/11 00:22:26;;;;;;;4.97;2.53;;;15.80;99.90;;;;;;5013412;28;20422;-56
2023/06/11 00:24:52;;;;;;;6.60;2.50;;;15.70;99.90;;;;;;5013709;28;20426;-57
2023/06/11 00:27:17;;;;;;;8.33;2.57;;;15.70;99.90;;;;;;5013406;28;20471;-55
2023/06/11 00:29:43;;;;;;;6.13;2.60;;;15.60;99.90;;;;;;5013612;28;20193;-54
2023/06/11 00:32:08;;;;;;;3.87;2.37;;;15.60;99.90;;;;;;5013667;28;20181;-55
2023/06/11 00:34:34;;;;;;;4.10;2.03;;;15.60;99.90;;;;;;5013471;28;20182;-56
2023/06/11 00:37:00;;;;;;;12.67;3.10;;;15.60;99.90;;;;;;5013774;28;20188;-56
2023/06/11 00:39:26;;;;;;;7.27;2.40;;;15.50;99.90;;;;;;5013296;28;20299;-56
2023/06/11 00:41:53;;;;;;;7.53;2.67;;;15.50;99.90;;;;;;5013615;28;20877;-56
2023/06/11 00:44:21;;;;;;;5.87;2.40;;;15.40;99.90;;;;;;5013481;28;20231;-55
2023/06/11 00:46:48;;;;;;;5.30;2.93;;;15.30;99.90;;;;;;5013711;28;20887;-55
2023/06/11 00:49:14;;;;;;;5.60;2.83;;;15.30;99.90;;;;;;5013352;28;20486;-58
2023/06/11 00:51:45;;;;;;;4.50;2.27;;;15.20;99.90;;;;;;5013114;28;20461;-54
2023/06/11 00:54:12;;;;;;;9.83;2.60;;;15.20;99.90;;;;;;5013456;28;20897;-55
2023/06/11 00:56:41;;;;;;;3.13;2.00;;;15.20;99.90;;;;;;5013043;28;20448;-55
2023/06/11 00:59:07;;;;;;;6.33;2.60;;;15.10;99.90;;;;;;5013052;28;20554;-56
2023/06/11 01:01:41;;;;;;;4.30;2.30;;;15.10;99.90;;;;;;5013237;28;20428;-55
2023/06/11 01:04:13;;;;;;;6.40;2.40;;;15.00;99.90;;;;;;5014700;28;20411;-55
2023/06/11 01:06:46;;;;;;;5.50;2.40;;;14.90;99.90;;;;;;5017079;28;20458;-55
2023/06/11 01:09:15;;;;;;;2.87;2.60;;;14.90;99.90;;;;;;5017089;28;20448;-56
2023/06/11 01:11:41;;;;;;;12.77;2.63;;;14.80;99.90;;;;;;5016977;28;20774;-56
2023/06/11 01:14:06;;;;;;;5.40;2.50;;;14.80;99.90;;;;;;5016638;28;20418;-55
2023/06/11 01:16:45;;;;;;;5.77;2.40;;;14.80;99.90;;;;;;5016478;28;20268;-55
2023/06/11 01:19:31;;;;;;;4.27;2.70;;;14.70;99.90;;;;;;5016638;28;20256;-55
2023/06/11 01:22:13;;;;;;;4.07;2.53;;;14.60;99.90;;;;;;5016862;28;20404;-56
2023/06/11 01:24:41;;;;;;;6.00;2.67;;;14.70;99.90;;;;;;5016571;28;20970;-56
2023/06/11 01:27:18;;;;;;;7.93;2.50;;;14.70;99.90;;;;;;5016519;28;20481;-53
2023/06/11 01:29:48;;;;;;;5.87;2.80;;;14.70;99.90;;;;;;5016559;28;20757;-54
2023/06/11 01:32:17;;;;;;;10.37;2.80;;;14.70;99.90;;;;;;5016395;28;20765;-54
2023/06/11 01:34:42;;;;;;;5.07;2.27;;;14.60;99.90;;;;;;5016087;28;20514;-55
2023/06/11 01:37:15;;;;;;;4.53;2.77;;;14.50;99.90;;;;;;5015914;28;20512;-55
2023/06/11 01:39:45;;;;;;;5.17;2.70;;;14.60;99.90;;;;;;5016312;28;20216;-54
2023/06/11 01:42:11;;;;;;;8.33;2.27;;;14.50;99.90;;;;;;5016550;28;20426;-55
2023/06/11 01:44:37;;;;;;;8.10;2.70;;;14.60;99.90;;;;;;5016433;28;20507;-55
2023/06/11 01:47:02;;;;;;;4.73;2.30;;;14.50;99.90;;;;;;5016455;28;20469;-54
2023/06/11 01:49:28;;;;;;;4.87;2.53;;;14.50;99.90;;;;;;5016145;28;20192;-55
2023/06/11 01:51:53;;;;;;;14.23;2.80;;;14.50;99.90;;;;;;5015725;28;20179;-54
2023/06/11 01:54:19;;;;;;;5.93;2.43;;;14.50;99.90;;;;;;5016361;28;20537;-56
2023/06/11 01:56:45;;;;;;;2.63;2.20;;;14.50;99.90;;;;;;5015865;28;20183;-55
2023/06/11 01:59:12;;;;;;;7.33;2.60;;;14.40;99.90;;;;;;5016024;28;20236;-55
2023/06/11 02:01:38;;;;;;;4.37;2.33;;;14.30;99.90;;;;;;5015869;28;20222;-55
2023/06/11 02:04:04;;;;;;;9.90;2.60;;;14.20;99.90;;;;;;5015535;28;20424;-55
2023/06/11 02:06:31;;;;;;;7.03;2.47;;;14.10;99.90;;;;;;5015541;28;20203;-56
2023/06/11 02:08:56;;;;;;;4.50;2.70;;;14.10;1.00;;;;;;5015833;28;20423;-55
2023/06/11 02:11:22;;;;;;;8.60;2.43;;;14.10;1.00;;;;;;5015282;28;20407;-55
2023/06/11 02:13:47;;;;;;;4.60;2.37;;;14.00;1.00;;;;;;5015528;28;20213;-55
2023/06/11 02:16:13;;;;;;;7.03;2.60;;;14.00;1.00;;;;;;5015190;28;20312;-56
2023/06/11 02:18:38;;;;;;;3.43;2.27;;;14.00;1.00;;;;;;5015122;28;20234;-53
2023/06/11 02:21:04;;;;;;;5.57;3.03;;;13.90;1.00;;;;;;5015595;28;20186;-56
2023/06/11 02:23:30;;;;;;;5.87;2.77;;;14.00;1.00;;;;;;5015445;28;20624;-53
2023/06/11 02:25:55;;;;;;;4.33;2.37;;;13.90;1.00;;;;;;5015151;28;20219;-54
2023/06/11 02:28:21;;;;;;;4.07;2.47;;;13.90;1.00;;;;;;5015467;28;20826;-55
2023/06/11 02:30:47;;;;;;;8.03;2.80;;;13.80;1.00;;;;;;5015469;28;20177;-54
2023/06/11 02:33:12;;;;;;;4.40;2.30;;;13.80;1.00;;;;;;5015126;28;20180;-55
2023/06/11 02:35:38;;;;;;;5.70;2.40;;;13.80;1.00;;;;;;5015381;28;20212;-53
2023/06/11 02:38:03;;;;;;;5.10;2.40;;;13.80;1.00;;;;;;5015539;28;20182;-57
2023/06/11 02:40:29;;;;;;;3.40;2.37;;;13.80;1.00;;;;;;5014809;28;20228;-55
2023/06/11 02:42:54;;;;;;;5.43;2.90;;;13.80;1.00;;;;;;5015027;28;20187;-54
2023/06/11 02:45:20;;;;;;;4.77;2.30;;;13.80;1.00;;;;;;5015239;28;20195;-56
2023/06/11 02:47:45;;;;;;;8.27;3.07;;;13.80;1.00;;;;;;5015104;28;20266;-55
2023/06/11 02:50:11;;;;;;;8.10;2.63;;;13.80;1.00;;;;;;5014947;28;20196;-55
2023/06/11 02:52:37;;;;;;;4.10;2.80;;;13.80;1.00;;;;;;5014710;28;20703;-55
2023/06/11 02:55:02;;;;;;;7.30;2.80;;;13.70;1.00;;;;;;5014753;28;20255;-55
2023/06/11 02:57:29;;;;;;;5.60;2.80;;;13.60;1.00;;;;;;5014819;28;20180;-55
2023/06/11 02:59:54;;;;;;;10.93;2.77;;;13.60;1.00;;;;;;5014341;28;20216;-55
2023/06/11 03:02:20;;;;;;;6.00;2.70;;;13.60;1.00;;;;;;5014373;28;20507;-55
2023/06/11 03:04:45;;;;;;;6.00;2.90;;;13.60;1.00;;;;;;5014458;28;20176;-54
2023/06/11 03:07:11;;;;;;;7.40;2.70;;;13.60;1.00;;;;;;5014721;28;20657;-55
2023/06/11 03:09:36;;;;;;;6.97;2.80;;;13.60;1.00;;;;;;5014707;28;20240;-55
2023/06/11 03:12:02;;;;;;;4.80;2.57;;;13.60;1.00;;;;;;5014448;28;20621;-53
2023/06/11 03:14:28;;;;;;;8.70;3.17;;;13.60;1.00;;;;;;5014577;28;20235;-55
2023/06/11 03:16:53;;;;;;;7.87;2.70;;;13.70;1.00;;;;;;5014608;28;20176;-55
2023/06/11 03:19:19;;;;;;;5.00;2.60;;;13.70;1.00;;;;;;5014457;28;20246;-54
2023/06/11 03:21:44;;;;;;;4.10;2.40;;;13.80;1.00;;;;;;5014058;28;20219;-56
2023/06/11 03:24:10;;;;;;;2.90;2.27;;;13.80;1.00;;;;;;5014599;28;20179;-55
2023/06/11 03:26:36;;;;;;;4.80;3.30;;;13.90;1.00;;;;;;5013950;28;20628;-54
2023/06/11 03:29:02;;;;;;;6.63;2.60;;;13.90;1.00;;;;;;5014419;28;20188;-55
2023/06/11 03:31:27;;;;;;;4.23;2.70;;;14.10;1.00;;;;;;5014264;28;20488;-55
2023/06/11 03:33:53;;;;;;;6.67;3.20;;;14.10;1.00;;;;;;5014183;28;20461;-57
2023/06/11 03:36:18;;;;;;;4.53;2.77;;;14.10;1.00;;;;;;5013866;28;20184;-57
2023/06/11 03:38:44;;;;;;;6.50;2.43;;;14.20;1.00;;;;;;5013647;28;20212;-55
2023/06/11 03:41:10;;;;;;;8.23;3.30;;;14.20;1.00;;;;;;5013943;28;20652;-55
2023/06/11 03:43:35;;;;;;;5.17;3.07;;;14.30;1.00;;;;;;5013856;28;20181;-54
2023/06/11 03:46:02;;;;;;;9.73;2.80;;;14.30;1.00;;;;;;5014191;28;20192;-55
2023/06/11 03:48:27;;;;;;;3.73;2.77;;;14.40;1.00;;;;;;5013940;28;20277;-55
2023/06/11 03:50:53;;;;;;;5.40;2.80;;;14.50;1.00;;;;;;5013736;28;20531;-55
2023/06/11 03:53:18;;;;;;;11.17;2.83;;;14.40;1.00;;;;;;5014019;28;20239;-58
2023/06/11 03:55:44;;;;;;;9.33;3.10;;;14.50;1.00;;;;;;5013459;28;20216;-56
2023/06/11 03:58:10;;;;;;;2.90;2.50;;;14.40;1.00;;;;;;5013518;28;20177;-56
2023/06/11 04:00:35;;;;;;;7.07;3.13;;;14.50;1.00;;;;;;5013981;28;20239;-55
2023/06/11 04:03:01;;;;;;;6.23;3.00;;;14.50;1.00;;;;;;5013699;28;20425;-56
2023/06/11 04:05:26;;;;;;;6.27;3.53;;;14.50;1.00;;;;;;5014278;28;20184;-56
2023/06/11 04:07:52;;;;;;;6.00;2.70;;;14.50;1.00;;;;;;5013542;28;20604;-55
2023/06/11 04:10:17;;;;;;;9.20;2.90;;;14.40;1.00;;;;;;5013659;28;20184;-55
2023/06/11 04:12:43;;;;;;;7.83;3.00;;;14.40;1.00;;;;;;5013605;28;20184;-54
2023/06/11 04:15:09;;;;;;;6.23;2.60;;;14.40;1.00;;;;;;5013542;28;20180;-56
2023/06/11 04:17:35;;;;;;;11.23;3.57;;;14.50;1.00;;;;;;5013254;28;20189;-55
2023/06/11 04:20:02;;;;;;;4.37;2.93;;;14.60;1.00;;;;;;5013532;28;20521;-56
2023/06/11 04:22:27;;;;;;;11.13;2.87;;;14.60;1.00;;;;;;5013492;28;20180;-56
2023/06/11 04:24:53;;;;;;;3.93;2.67;;;14.70;1.00;;;;;;5013947;28;20895;-54
2023/06/11 04:27:20;;;;;;;5.80;3.07;;;14.70;1.00;;;;;;5013951;28;20223;-55
2023/06/11 04:29:46;;;;;;;8.40;2.77;;;14.70;1.00;;;;;;5013560;28;20644;-55
2023/06/11 04:32:16;;;;;;;7.20;3.60;;;14.80;1.00;;;;;;5013128;28;20420;-56
2023/06/11 04:34:43;;;;;;;4.60;3.10;;;14.90;1.00;;;;;;5013632;28;20756;-56
2023/06/11 04:37:09;;;;;;;7.60;2.93;;;14.90;1.00;;;;;;5013689;28;20429;-57
2023/06/11 04:39:35;;;;;;;5.13;2.90;;;14.90;1.00;;;;;;5017426;28;20455;-56
2023/06/11 04:42:02;;;;;;;5.63;2.80;;;14.90;1.00;;;;;;5017473;28;20918;-54
2023/06/11 04:44:28;;;;;;;6.93;2.77;;;14.90;1.00;;;;;;5017367;28;20407;-56
2023/06/11 04:46:57;;;;;;;7.90;2.80;;;15.00;1.00;;;;;;5017286;28;20508;-56
2023/06/11 04:49:23;;;;;;;7.40;2.90;;;15.00;1.00;;;;;;5017180;28;20423;-58
2023/06/11 04:51:52;;;;;;;7.10;2.73;;;15.10;1.00;;;;;;5016782;28;20436;-56
2023/06/11 04:54:21;;;;;;;9.03;3.20;;;15.30;1.00;;;;;;5016904;28;20420;-55
2023/06/11 04:56:47;;;;;;;8.20;3.00;;;15.50;1.00;;;;;;5017377;28;20511;-55
2023/06/11 04:59:13;;;;;;;6.13;3.00;;;15.80;1.00;;;;;;5016952;28;20468;-55
2023/06/11 05:01:46;;;;;;;7.20;3.23;;;15.90;1.00;;;;;;5016698;28;20794;-55
2023/06/11 05:04:12;;;;;;;7.93;3.27;;;16.10;1.00;;;;;;5017301;28;20236;-56
2023/06/11 05:06:38;;;;;;;5.67;3.20;;;16.30;1.00;;;;;;5016644;28;20782;-55
2023/06/11 05:09:03;;;;;;;5.53;2.77;;;16.40;1.00;;;;;;5017260;28;20423;-57
2023/06/11 05:11:29;;;;;;;4.50;2.53;;;16.50;1.00;;;;;;5016613;28;20621;-56
2023/06/11 05:13:55;;;;;;;4.83;2.90;;;16.60;1.00;;;;;;5016471;28;20184;-56
2023/06/11 05:16:20;;;;;;;2.63;2.40;;;16.80;1.00;;;;;;5016954;28;20217;-55
2023/06/11 05:18:46;;;;;;;5.83;3.10;;;16.90;1.00;;;;;;5016808;28;20247;-54
2023/06/11 05:21:12;;;;;;;5.20;3.37;;;17.00;1.00;;;;;;5016386;28;20426;-56
2023/06/11 05:23:39;;;;;;;8.33;2.90;;;17.10;1.00;;;;;;5016538;28;20185;-56
2023/06/11 05:26:12;;;;;;;5.90;2.90;;;17.10;1.00;;;;;;5016602;28;20190;-55
2023/06/11 05:28:38;;;;;;;13.87;3.60;;;17.30;1.00;;;;;;5016840;28;20401;-54
2023/06/11 05:31:05;;;;;;;6.13;3.40;;;17.50;1.00;;;;;;5016847;28;20440;-56
2023/06/11 05:33:30;;;;;;;5.93;3.07;;;17.60;1.00;;;;;;5016257;28;20429;-55
2023/06/11 05:35:56;;;;;;;5.23;3.13;;;17.80;1.00;;;;;;5016045;28;20433;-55
2023/06/11 05:38:23;;;;;;;4.40;3.30;;;17.90;1.00;;;;;;5016136;28;20273;-55
2023/06/11 05:40:49;;;;;;;5.50;3.07;;;18.10;1.00;;;;;;5015952;28;20191;-55
2023/06/11 05:43:15;;;;;;;4.63;3.30;;;18.20;1.00;;;;;;5016519;28;20433;-55
2023/06/11 05:45:50;;;;;;;6.83;3.00;;;18.50;1.00;;;;;;5016226;28;20190;-55
2023/06/11 05:48:17;;;;;;;5.43;3.10;;;18.60;1.00;;;;;;5016524;28;20207;-55
2023/06/11 05:50:43;;;;;;;8.20;2.97;;;18.70;99.90;;;;;;5015386;28;20419;-55
2023/06/11 05:53:09;;;;;;;4.60;2.90;;;18.80;99.90;;;;;;5015694;28;20875;-55
2023/06/11 05:55:35;;;;;;;5.30;3.47;;;19.00;99.90;;;;;;5015767;28;20218;-55
2023/06/11 05:58:01;;;;;;;7.93;3.47;;;19.00;99.90;;;;;;5015640;28;20517;-55
2023/06/11 06:00:27;;;;;;;7.03;3.20;;;19.10;99.90;;;;;;5015900;28;20552;-54
2023/06/11 06:02:53;;;;;;;6.27;3.17;;;19.30;99.90;;;;;;5016079;28;20183;-55
2023/06/11 06:05:19;;;;;;;10.30;3.20;;;19.50;99.90;;;;;;5015963;28;20799;-55
2023/06/11 06:07:44;;;;;;;5.73;3.30;;;19.70;99.90;;;;;;5016335;28;20568;-55
2023/06/11 06:10:10;;;;;;;5.00;3.33;;;20.00;99.90;;;;;;5015572;28;20187;-54
2023/06/11 06:12:35;;;;;;;7.73;3.13;;;20.20;99.90;;;;;;5015512;28;20187;-55
2023/06/11 06:15:01;;;;;;;4.37;3.00;;;20.30;99.90;;;;;;5015954;28;20195;-55
2023/06/11 06:17:27;;;;;;;4.97;3.00;;;20.40;99.90;;;;;;5015463;28;20326;-55
2023/06/11 06:19:52;;;;;;;5.73;3.23;;;20.50;99.90;;;;;;5015356;28;20216;-53
2023/06/11 06:22:18;;;;;;;8.50;3.40;;;20.70;99.90;;;;;;5015673;28;20217;-53
2023/06/11 06:24:44;;;;;;;4.30;3.00;;;20.90;99.90;;;;;;5015788;28;20178;-54
2023/06/11 06:27:10;;;;;;;6.23;3.20;;;21.00;99.90;;;;;;5015302;28;20189;-54
2023/06/11 06:29:38;;;;;;;6.17;3.10;;;21.20;99.90;;;;;;5015110;28;20516;-55
2023/06/11 06:32:05;;;;;;;6.87;3.00;;;21.50;99.90;;;;;;5015611;28;20236;-54
2023/06/11 06:34:30;;;;;;;5.07;3.77;;;21.70;99.90;;;;;;5015202;28;20431;-54
2023/06/11 06:36:56;;;;;;;5.60;3.13;;;21.90;99.90;;;;;;5015250;28;20415;-55
2023/06/11 06:39:22;;;;;;;4.93;3.30;;;22.00;99.90;;;;;;5015267;28;20213;-54
2023/06/11 06:41:47;;;;;;;8.47;3.60;;;22.20;99.90;;;;;;5015149;28;20555;-53
2023/06/11 06:44:13;;;;;;;9.20;3.20;;;22.30;99.90;;;;;;5015172;28;20183;-53
2023/06/11 06:46:38;;;;;;;5.33;3.20;;;22.50;99.90;;;;;;5014711;28;20183;-52
2023/06/11 06:49:04;;;;;;;4.87;3.10;;;22.60;99.90;;;;;;5014379;28;20187;-53
2023/06/11 06:51:30;;;;;;;4.73;3.40;;;22.80;99.90;;;;;;5014834;28;20268;-53
2023/06/11 06:53:56;;;;;;;5.70;3.50;;;22.90;99.90;;;;;;5014136;28;20268;-53
2023/06/11 06:56:22;;;;;;;3.80;3.10;;;23.10;99.90;;;;;;5014363;28;20213;-53
2023/06/11 06:58:48;;;;;;;5.67;4.20;;;23.20;99.90;;;;;;5014652;28;20917;-52
2023/06/11 07:01:14;;;;;;;5.03;3.20;;;23.50;99.90;;;;;;5013420;28;20416;-52
2023/06/11 07:03:41;;;;;;;4.87;3.60;;;23.80;99.90;;;;;;5014754;28;20417;-52
2023/06/11 07:06:07;;;;;;;5.83;3.47;;;24.00;99.90;;;;;;5014689;28;20190;-53
2023/06/11 07:08:33;;;;;;;6.30;3.43;;;24.20;99.90;;;;;;5014578;28;20416;-53
2023/06/11 07:10:58;;;;;;;8.63;3.77;;;24.30;99.90;;;;;;5014150;28;20768;-53
2023/06/11 07:13:24;;;;;;;5.00;3.60;;;24.40;99.90;;;;;;5014542;28;20186;-53
2023/06/11 07:15:50;;;;;;;6.03;4.17;;;24.60;99.90;;;;;;5014206;28;20265;-53
2023/06/11 07:18:17;;;;;;;10.33;3.07;;;24.70;99.90;;;;;;5014348;28;20192;-52
2023/06/11 07:20:43;;;;;;;7.93;3.20;;;25.10;99.90;;;;;;5014155;28;20643;-52
2023/06/11 07:23:08;;;;;;;5.80;3.27;;;25.20;99.90;;;;;;5014447;28;20476;-52
2023/06/11 07:25:34;;;;;;;7.23;3.57;;;25.40;99.90;;;;;;5013631;28;20414;-52
2023/06/11 07:28:03;;;;;;;8.23;3.70;;;25.30;99.90;;;;;;5014275;28;20183;-53
2023/06/11 07:30:30;;;;;;;8.80;3.47;;;25.40;99.90;;;;;;5013679;28;20183;-52
2023/06/11 07:32:56;;;;;;;5.50;3.60;;;25.50;99.90;;;;;;5013242;28;20462;-53
2023/06/11 07:35:22;;;;;;;6.47;3.20;;;25.60;99.90;;;;;;5013832;28;20418;-53
2023/06/11 07:37:48;;;;;;;5.20;3.50;;;25.70;99.90;;;;;;5013688;28;20426;-53
2023/06/11 07:40:15;;;;;;;6.87;3.60;;;25.90;99.90;;;;;;5013425;28;20466;-53
2023/06/11 07:42:44;;;;;;;6.03;3.13;;;26.30;99.90;;;;;;5013960;28;20414;-52
2023/06/11 07:45:11;;;;;;;11.63;3.30;;;26.60;99.90;;;;;;5013950;28;20457;-52
2023/06/11 07:47:36;;;;;;;6.73;3.57;;;26.60;99.90;;;;;;5013765;28;20481;-53
2023/06/11 07:50:03;;;;;;;5.70;3.30;;;26.60;99.90;;;;;;5013661;28;20423;-53
2023/06/11 07:52:29;;;;;;;8.40;3.57;;;26.80;99.90;;;;;;5013140;28;20269;-51
2023/06/11 07:54:55;;;;;;;6.63;4.00;;;27.10;99.90;;;;;;5013300;28;20419;-51
2023/06/11 07:57:21;;;;;;;9.50;3.73;;;27.50;99.90;;;;;;5013310;28;20191;-51
2023/06/11 07:59:47;;;;;;;5.30;3.40;;;27.60;99.90;;;;;;5013236;28;20458;-51
2023/06/11 08:02:14;;;;;;;6.00;4.17;;;27.70;99.90;;;;;;5012889;28;20690;-52
2023/06/11 08:04:40;;;;;;;4.07;3.33;;;27.90;99.90;;;;;;5013262;28;20830;-51
2023/06/11 08:07:05;;;;;;;8.50;3.47;;;28.00;99.90;;;;;;5013463;28;20503;-53
2023/06/11 08:09:33;;;;;;;5.70;3.43;;;28.10;99.90;;;;;;5013406;28;20423;-51
2023/06/11 08:11:59;;;;;;;6.80;3.27;;;27.90;99.90;;;;;;5013404;28;20191;-53
2023/06/11 08:14:25;;;;;;;3.57;3.20;;;28.10;99.90;;;;;;5013492;28;20415;-52
2023/06/11 08:16:51;;;;;;;6.10;3.20;;;28.20;99.90;;;;;;5013070;28;20202;-52
2023/06/11 08:19:16;;;;;;;7.20;3.70;;;28.40;99.90;;;;;;5013074;28;20208;-52
2023/06/11 08:21:42;;;;;;;7.90;3.60;;;28.80;99.90;;;;;;5013514;28;20192;-52
2023/06/11 08:24:09;;;;;;;5.30;3.77;;;29.00;99.90;;;;;;5013610;28;20187;-52
2023/06/11 08:26:35;;;;;;;6.07;3.20;;;28.90;99.90;;;;;;5013292;28;20180;-52
2023/06/11 08:29:00;;;;;;;6.87;3.97;;;29.00;99.90;;;;;;5013245;28;20760;-51
2023/06/11 08:31:26;;;;;;;10.37;3.77;;;29.10;99.90;;;;;;5013383;28;20184;-52
2023/06/11 08:33:52;;;;;;;6.27;3.20;;;29.40;99.90;;;;;;5012858;28;20184;-52
2023/06/11 08:36:18;;;;;;;4.47;3.53;;;29.40;99.90;;;;;;5013146;28;20481;-52
2023/06/11 08:38:45;;;;;;;7.00;3.30;;;29.50;99.90;;;;;;5012830;28;20459;-52
2023/06/11 08:41:11;;;;;;;4.20;3.73;;;29.60;99.90;;;;;;5012915;28;20415;-53
2023/06/11 08:43:38;;;;;;;11.37;3.67;;;29.90;99.90;;;;;;5013243;28;20413;-52
2023/06/11 08:46:03;;;;;;;5.77;3.73;;;30.20;99.90;;;;;;5012890;28;20644;-52
2023/06/11 08:48:31;;;;;;;7.03;3.43;;;30.20;99.90;;;;;;5013034;28;20411;-52
2023/06/11 08:51:03;;;;;;;5.90;3.90;;;30.30;99.90;;;;;;5012879;28;20560;-52
2023/06/11 08:53:30;;;;;;;6.67;3.70;;;30.30;99.90;;;;;;5012962;28;20853;-52
2023/06/11 08:55:55;;;;;;;4.70;3.20;;;30.50;99.90;;;;;;5012871;28;20414;-52
2023/06/11 08:58:22;;;;;;;7.30;3.20;;;30.80;99.90;;;;;;5012793;28;20407;-52
2023/06/11 09:00:48;;;;;;;8.70;3.67;;;30.90;99.90;;;;;;5012796;28;20208;-52
2023/06/11 09:03:15;;;;;;;7.80;3.67;;;30.80;99.90;;;;;;5012874;28;20423;-52
2023/06/11 09:05:42;;;;;;;6.67;3.50;;;30.50;99.90;;;;;;5013086;28;20181;-53
2023/06/11 09:08:08;;;;;;;6.00;3.10;;;30.70;99.90;;;;;;5012637;28;20435;-52
2023/06/11 09:10:46;;;;;;;8.97;4.07;;;30.80;99.90;;;;;;5012258;28;20438;-53
2023/06/11 09:13:12;;;;;;;4.90;3.83;;;31.00;99.90;;;;;;5013031;28;20239;-52
2023/06/11 09:15:46;;;;;;;6.57;3.37;;;31.20;99.90;;;;;;5012705;28;20442;-53
2023/06/11 09:18:12;;;;;;;6.23;3.70;;;31.30;99.90;;;;;;5012466;28;20167;-52
2023/06/11 09:20:37;;;;;;;5.97;3.70;;;31.40;99.90;;;;;;5012466;28;20866;-53
2023/06/11 09:23:03;;;;;;;6.83;3.10;;;31.60;99.90;;;;;;5013045;28;20180;-53
2023/06/11 09:25:30;;;;;;;4.27;3.60;;;31.40;99.90;;;;;;5014076;28;20187;-52
2023/06/11 09:28:05;;;;;;;13.30;3.70;;;31.30;99.90;;;;;;5015842;28;20202;-53
2023/06/11 09:30:30;;;;;;;10.23;4.37;;;31.30;99.90;;;;;;5016099;28;20452;-52
2023/06/11 09:32:56;;;;;;;4.63;3.60;;;31.50;99.90;;;;;;5016422;28;20931;-53
2023/06/11 09:35:22;;;;;;;10.77;3.83;;;31.10;99.90;;;;;;5015767;28;20180;-52
2023/06/11 09:37:50;;;;;;;4.93;3.33;;;30.60;99.90;;;;;;5016110;28;20223;-52
2023/06/11 09:40:17;;;;;;;4.70;3.37;;;30.80;99.90;;;;;;5015977;28;20212;-52
2023/06/11 09:42:43;;;;;;;5.03;3.50;;;31.00;99.90;;;;;;5016187;28;20423;-52
2023/06/11 09:45:19;;;;;;;8.70;3.60;;;31.30;99.90;;;;;;5015855;28;20415;-52
2023/06/11 09:47:46;;;;;;;5.87;3.73;;;31.50;99.90;;;;;;5016057;28;20442;-52
2023/06/11 09:50:16;;;;;;;3.87;3.40;;;31.70;99.90;;;;;;5015735;28;20492;-53
2023/06/11 09:52:43;;;;;;;5.23;4.00;;;32.00;99.90;;;;;;5015335;28;20442;-53
2023/06/11 09:55:10;;;;;;;4.17;3.03;;;32.30;99.90;;;;;;5015379;28;20442;-53
2023/06/11 09:57:37;;;;;;;6.63;3.60;;;32.30;99.90;;;;;;5015237;28;20419;-52
2023/06/11 10:00:07;;;;;;;8.43;3.80;;;32.60;99.90;;;;;;5015606;28;20510;-53
2023/06/11 10:02:34;;;;;;;6.60;3.60;;;32.90;99.90;;;;;;5015382;28;20511;-53
2023/06/11 10:05:00;;;;;;;13.33;3.70;;;33.10;99.90;;;;;;5015659;28;20423;-52
2023/06/11 10:07:27;;;;;;;9.73;3.93;;;33.40;99.90;;;;;;5015692;28;20415;-53
2023/06/11 10:09:53;;;;;;;4.77;3.80;;;33.60;99.90;;;;;;5015274;28;20230;-51
2023/06/11 10:12:22;;;;;;;8.63;4.13;;;33.60;99.90;;;;;;5015199;28;20450;-52
2023/06/11 10:14:52;;;;;;;7.23;3.93;;;33.50;99.90;;;;;;5015238;28;20442;-52
2023/06/11 10:17:17;;;;;;;5.23;3.67;;;33.50;99.90;;;;;;5014814;28;20783;-52
2023/06/11 10:19:51;;;;;;;8.93;3.50;;;33.70;99.90;;;;;;5013599;28;20490;-52
2023/06/11 10:22:34;;;;;;;4.80;3.47;;;33.80;99.90;;;;;;5015237;28;20207;-53
2023/06/11 10:25:01;;;;;;;12.70;3.47;;;33.70;99.90;;;;;;5014691;28;20887;-52
2023/06/11 10:27:37;;;;;;;7.67;4.40;;;33.90;99.90;;;;;;5014845;28;20995;-53
2023/06/11 10:30:07;;;;;;;4.30;3.50;;;34.10;99.90;;;;;;5014604;28;20446;-53
2023/06/11 10:32:34;;;;;;;7.60;3.83;;;34.20;99.90;;;;;;5014402;28;20423;-52
2023/06/11 10:35:04;;;;;;;7.97;3.30;;;34.30;99.90;;;;;;5015190;28;20784;-53
2023/06/11 10:37:36;;;;;;;10.40;3.80;;;34.50;99.90;;;;;;5014621;28;20458;-53
2023/06/11 10:40:03;;;;;;;7.63;3.23;;;34.80;99.90;;;;;;5015049;28;20892;-52
2023/06/11 10:42:38;;;;;;;5.47;3.33;;;34.80;99.90;;;;;;5014687;28;20506;-52
2023/06/11 10:45:13;;;;;;;7.07;3.60;;;34.80;99.90;;;;;;5014616;28;20415;-53
2023/06/11 10:47:44;;;;;;;8.90;3.97;;;34.80;99.90;;;;;;5014498;28;20506;-53
2023/06/11 10:50:12;;;;;;;6.03;3.80;;;34.60;99.90;;;;;;5014322;28;20427;-53
2023/06/11 10:52:58;;;;;;;4.93;3.67;;;34.80;99.90;;;;;;5014560;28;20474;-53
2023/06/11 10:55:29;;;;;;;8.27;3.37;;;34.40;99.90;;;;;;5014999;28;20414;-53
2023/06/11 10:57:59;;;;;;;5.93;3.20;;;34.50;99.90;;;;;;5014548;28;20412;-53
2023/06/11 11:00:32;;;;;;;7.10;3.60;;;34.60;99.90;;;;;;5014024;28;20969;-53
2023/06/11 11:02:59;;;;;;;8.10;3.67;;;34.60;99.90;;;;;;5014614;28;20408;-53
2023/06/11 11:05:25;;;;;;;3.87;3.10;;;34.60;99.90;;;;;;5013931;28;20481;-53
2023/06/11 11:07:53;;;;;;;5.43;3.80;;;34.80;99.90;;;;;;5014406;28;20461;-53
2023/06/11 11:10:24;;;;;;;4.40;3.40;;;34.80;99.90;;;;;;5014125;28;20480;-52
2023/06/11 11:12:49;;;;;;;4.90;3.63;;;34.80;99.90;;;;;;5014049;28;20379;-52
2023/06/11 11:15:15;;;;;;;8.13;4.20;;;34.90;99.90;;;;;;5014268;28;20772;-53
2023/06/11 11:17:43;;;;;;;6.70;3.77;;;34.60;99.90;;;;;;5013901;28;20188;-53
2023/06/11 11:20:10;;;;;;;3.90;3.50;;;34.30;99.90;;;;;;5014101;28;20247;-53
2023/06/11 11:22:36;;;;;;;9.43;3.60;;;34.50;99.90;;;;;;5013713;28;20769;-51
2023/06/11 11:25:06;;;;;;;5.13;3.67;;;34.90;99.90;;;;;;5014005;28;20955;-53
2023/06/11 11:27:33;;;;;;;5.27;3.67;;;35.30;99.90;;;;;;5013833;28;20411;-53
2023/06/11 11:30:01;;;;;;;6.03;3.50;;;34.80;99.90;;;;;;5013666;28;20430;-53
2023/06/11 11:32:30;;;;;;;9.63;3.20;;;34.50;99.90;;;;;;5013495;28;20427;-52
2023/06/11 11:35:00;;;;;;;7.50;3.90;;;34.60;99.90;;;;;;5013541;28;20446;-53
2023/06/11 11:37:29;;;;;;;4.17;3.00;;;34.60;99.90;;;;;;5013456;28;20423;-53
2023/06/11 11:39:55;;;;;;;6.23;3.43;;;34.80;99.90;;;;;;5013375;28;20524;-53
2023/06/11 11:42:22;;;;;;;4.63;3.20;;;35.10;99.90;;;;;;5013589;28;20462;-53
2023/06/11 11:44:53;;;;;;;8.30;3.70;;;35.30;99.90;;;;;;5013379;28;20415;-53
2023/06/11 11:47:20;;;;;;;3.43;3.13;;;35.40;99.90;;;;;;5012788;28;20414;-52
2023/06/11 11:49:56;;;;;;;6.40;3.60;;;35.40;99.90;;;;;;5013144;28;20419;-53
2023/06/11 11:52:22;;;;;;;5.60;3.60;;;35.20;99.90;;;;;;5012861;28;20977;-53
2023/06/11 11:54:48;;;;;;;4.63;3.30;;;35.00;99.90;;;;;;5013137;28;20470;-53
2023/06/11 11:57:18;;;;;;;10.23;3.70;;;35.10;99.90;;;;;;5013216;28;20419;-53
2023/06/11 11:59:44;;;;;;;3.60;2.90;;;35.30;99.90;;;;;;5013338;28;20232;-53
2023/06/11 12:02:09;;;;;;;3.93;3.63;;;35.50;99.90;;;;;;5013177;28;20442;-53
2023/06/11 12:04:45;;;;;;;4.27;3.33;;;35.40;99.90;;;;;;5012938;28;20192;-53
2023/06/11 12:07:16;;;;;;;5.33;3.70;;;35.10;99.90;;;;;;5013128;28;20246;-52
2023/06/11 12:09:42;;;;;;;4.73;3.77;;;35.00;99.90;;;;;;5013180;28;20426;-53
2023/06/11 12:12:08;;;;;;;6.13;3.60;;;34.80;99.90;;;;;;5013175;28;20422;-53
2023/06/11 12:14:34;;;;;;;4.13;3.57;;;34.80;99.90;;;;;;5013495;28;20310;-53
2023/06/11 12:17:00;;;;;;;4.70;3.83;;;35.10;99.90;;;;;;5013167;28;20510;-53
2023/06/11 12:19:29;;;;;;;3.90;3.60;;;35.40;99.90;;;;;;5012649;28;20903;-53
2023/06/11 12:21:55;;;;;;;3.97;3.60;;;35.60;99.90;;;;;;5013428;28;20230;-53
2023/06/11 12:24:22;;;;;;;3.63;3.30;;;35.70;99.90;;;;;;5012899;28;20408;-53
2023/06/11 12:26:49;;;;;;;4.87;3.60;;;35.50;99.90;;;;;;5012907;28;20965;-54
2023/06/11 12:29:15;;;;;;;4.77;3.47;;;35.60;99.90;;;;;;5013078;28;20450;-53
2023/06/11 12:31:41;;;;;;;9.30;3.00;;;35.70;99.90;;;;;;5013130;28;20411;-53
2023/06/11 12:34:09;;;;;;;4.70;3.43;;;35.80;99.90;;;;;;5012684;28;20443;-53
2023/06/11 12:36:36;;;;;;;5.23;3.33;;;35.70;99.90;;;;;;5012952;28;20389;-53
2023/06/11 12:39:04;;;;;;;6.10;3.27;;;35.90;99.90;;;;;;5012996;28;20774;-53
2023/06/11 12:41:31;;;;;;;5.20;3.73;;;35.70;99.90;;;;;;5012726;28;20419;-53
2023/06/11 12:43:59;;;;;;;7.63;3.53;;;35.60;99.90;;;;;;5013033;28;20410;-53
2023/06/11 12:46:28;;;;;;;4.37;3.20;;;35.40;99.90;;;;;;5013171;28;20506;-53